sensor_id;sensor_type;location;lat;lon;timestamp;temperature;humidity
63802;DHT22;49949;43.060;25.624;2023-05-16T00:02:06;21.00;88.70
63802;DHT22;49949;43.060;25.624;2023-05-16T00:04:31;21.00;88.20
63802;DHT22;49949;43.060;25.624;2023-05-16T00:06:57;21.10;87.90
63802;DHT22;49949;43.060;25.624;2023-05-16T00:09:23;21.10;87.40
63802;DHT22;49949;43.060;25.624;2023-05-16T00:11:49;21.30;86.80
63802;DHT22;49949;43.060;25.624;2023-05-16T00:14:15;21.30;86.90
63802;DHT22;49949;43.060;25.624;2023-05-16T00:16:41;21.30;86.70
63802;DHT22;49949;43.060;25.624;2023-05-16T00:19:07;21.40;86.40
63802;DHT22;49949;43.060;25.624;2023-05-16T00:21:33;21.40;86.50
63802;DHT22;49949;43.060;25.624;2023-05-16T00:23:58;21.30;86.70
63802;DHT22;49949;43.060;25.624;2023-05-16T00:26:25;21.30;86.80
63802;DHT22;49949;43.060;25.624;2023-05-16T00:28:51;21.20;86.90
63802;DHT22;49949;43.060;25.624;2023-05-16T00:31:16;21.20;86.90
63802;DHT22;49949;43.060;25.624;2023-05-16T00:33:42;21.20;86.80
63802;DHT22;49949;43.060;25.624;2023-05-16T00:36:08;21.20;86.70
63802;DHT22;49949;43.060;25.624;2023-05-16T00:38:34;21.20;86.70
63802;DHT22;49949;43.060;25.624;2023-05-16T00:40:59;21.20;86.60
63802;DHT22;49949;43.060;25.624;2023-05-16T00:43:25;21.20;86.60
63802;DHT22;49949;43.060;25.624;2023-05-16T00:45:51;21.30;86.60
63802;DHT22;49949;43.060;25.624;2023-05-16T00:48:17;21.30;86.50
63802;DHT22;49949;43.060;25.624;2023-05-16T00:50:43;21.30;86.40
63802;DHT22;49949;43.060;25.624;2023-05-16T00:53:09;21.30;86.40
63802;DHT22;49949;43.060;25.624;2023-05-16T00:55:36;21.30;86.30
63802;DHT22;49949;43.060;25.624;2023-05-16T00:58:04;21.30;86.20
63802;DHT22;49949;43.060;25.624;2023-05-16T01:00:30;21.30;86.20
63802;DHT22;49949;43.060;25.624;2023-05-16T01:02:56;21.30;86.00
63802;DHT22;49949;43.060;25.624;2023-05-16T01:05:22;21.40;86.10
63802;DHT22;49949;43.060;25.624;2023-05-16T01:07:47;21.30;86.10
63802;DHT22;49949;43.060;25.624;2023-05-16T01:10:14;21.40;85.90
63802;DHT22;49949;43.060;25.624;2023-05-16T01:15:38;21.40;85.80
63802;DHT22;49949;43.060;25.624;2023-05-16T01:21:07;21.30;86.00
63802;DHT22;49949;43.060;25.624;2023-05-16T01:26:23;21.40;85.80
63802;DHT22;49949;43.060;25.624;2023-05-16T01:28:53;21.30;85.80
63802;DHT22;49949;43.060;25.624;2023-05-16T01:31:20;21.40;86.00
63802;DHT22;49949;43.060;25.624;2023-05-16T01:33:47;21.30;86.10
63802;DHT22;49949;43.060;25.624;2023-05-16T01:36:21;21.30;86.20
63802;DHT22;49949;43.060;25.624;2023-05-16T01:39:05;21.30;86.20
63802;DHT22;49949;43.060;25.624;2023-05-16T01:41:55;21.30;86.00
63802;DHT22;49949;43.060;25.624;2023-05-16T01:44:35;21.30;85.90
63802;DHT22;49949;43.060;25.624;2023-05-16T01:47:07;21.30;85.90
63802;DHT22;49949;43.060;25.624;2023-05-16T01:55:10;21.30;86.70
63802;DHT22;49949;43.060;25.624;2023-05-16T01:57:37;21.10;87.00
63802;DHT22;49949;43.060;25.624;2023-05-16T02:00:04;21.10;86.50
63802;DHT22;49949;43.060;25.624;2023-05-16T02:02:30;21.10;86.90
63802;DHT22;49949;43.060;25.624;2023-05-16T02:04:56;21.10;86.50
63802;DHT22;49949;43.060;25.624;2023-05-16T02:07:22;21.10;86.50
63802;DHT22;49949;43.060;25.624;2023-05-16T02:09:48;21.10;86.40
63802;DHT22;49949;43.060;25.624;2023-05-16T02:12:13;21.20;86.50
63802;DHT22;49949;43.060;25.624;2023-05-16T02:14:39;21.10;86.30
63802;DHT22;49949;43.060;25.624;2023-05-16T02:17:05;21.20;86.50
63802;DHT22;49949;43.060;25.624;2023-05-16T02:19:31;21.10;86.60
63802;DHT22;49949;43.060;25.624;2023-05-16T02:21:57;21.00;87.10
63802;DHT22;49949;43.060;25.624;2023-05-16T02:24:22;21.00;87.00
63802;DHT22;49949;43.060;25.624;2023-05-16T02:26:48;21.00;87.20
63802;DHT22;49949;43.060;25.624;2023-05-16T02:29:14;21.00;87.30
63802;DHT22;49949;43.060;25.624;2023-05-16T02:31:41;20.90;87.20
63802;DHT22;49949;43.060;25.624;2023-05-16T02:34:07;20.90;87.80
63802;DHT22;49949;43.060;25.624;2023-05-16T02:36:33;20.80;88.30
63802;DHT22;49949;43.060;25.624;2023-05-16T02:39:01;20.70;89.50
63802;DHT22;49949;43.060;25.624;2023-05-16T02:41:28;20.60;90.90
63802;DHT22;49949;43.060;25.624;2023-05-16T02:43:54;20.40;90.30
63802;DHT22;49949;43.060;25.624;2023-05-16T02:46:28;20.30;90.00
63802;DHT22;49949;43.060;25.624;2023-05-16T02:48:57;20.30;92.30
63802;DHT22;49949;43.060;25.624;2023-05-16T02:51:25;20.10;91.80
63802;DHT22;49949;43.060;25.624;2023-05-16T02:53:51;20.00;92.70
63802;DHT22;49949;43.060;25.624;2023-05-16T02:56:18;20.00;93.30
63802;DHT22;49949;43.060;25.624;2023-05-16T02:58:46;19.90;95.10
63802;DHT22;49949;43.060;25.624;2023-05-16T03:01:13;19.70;94.70
63802;DHT22;49949;43.060;25.624;2023-05-16T03:03:38;19.60;95.90
63802;DHT22;49949;43.060;25.624;2023-05-16T03:06:04;19.40;96.50
63802;DHT22;49949;43.060;25.624;2023-05-16T03:08:30;19.30;96.80
63802;DHT22;49949;43.060;25.624;2023-05-16T03:10:56;19.20;97.90
63802;DHT22;49949;43.060;25.624;2023-05-16T03:13:22;19.00;98.10
63802;DHT22;49949;43.060;25.624;2023-05-16T03:15:48;19.00;99.00
63802;DHT22;49949;43.060;25.624;2023-05-16T03:18:14;18.80;99.50
63802;DHT22;49949;43.060;25.624;2023-05-16T03:20:40;18.70;99.90
63802;DHT22;49949;43.060;25.624;2023-05-16T03:23:06;18.60;99.90
63802;DHT22;49949;43.060;25.624;2023-05-16T03:25:36;18.60;99.90
63802;DHT22;49949;43.060;25.624;2023-05-16T03:28:04;18.60;99.90
63802;DHT22;49949;43.060;25.624;2023-05-16T03:30:29;18.50;99.90
63802;DHT22;49949;43.060;25.624;2023-05-16T03:32:55;18.50;99.90
63802;DHT22;49949;43.060;25.624;2023-05-16T03:35:21;18.50;99.90
63802;DHT22;49949;43.060;25.624;2023-05-16T03:37:47;18.50;99.90
63802;DHT22;49949;43.060;25.624;2023-05-16T03:40:13;18.40;99.90
63802;DHT22;49949;43.060;25.624;2023-05-16T03:42:38;18.40;99.90
63802;DHT22;49949;43.060;25.624;2023-05-16T03:45:05;18.40;99.90
63802;DHT22;49949;43.060;25.624;2023-05-16T03:47:31;18.50;99.90
63802;DHT22;49949;43.060;25.624;2023-05-16T03:49:57;18.40;99.90
63802;DHT22;49949;43.060;25.624;2023-05-16T03:52:23;18.50;99.90
63802;DHT22;49949;43.060;25.624;2023-05-16T03:54:48;18.50;99.90
63802;DHT22;49949;43.060;25.624;2023-05-16T03:57:14;18.60;99.90
63802;DHT22;49949;43.060;25.624;2023-05-16T03:59:41;18.70;99.90
63802;DHT22;49949;43.060;25.624;2023-05-16T04:02:07;18.90;99.90
63802;DHT22;49949;43.060;25.624;2023-05-16T04:04:32;19.00;99.90
63802;DHT22;49949;43.060;25.624;2023-05-16T04:06:58;19.20;99.90
63802;DHT22;49949;43.060;25.624;2023-05-16T04:09:24;19.20;99.90
63802;DHT22;49949;43.060;25.624;2023-05-16T04:11:49;19.20;99.90
63802;DHT22;49949;43.060;25.624;2023-05-16T04:14:16;19.40;99.00
63802;DHT22;49949;43.060;25.624;2023-05-16T04:16:41;19.70;97.90
63802;DHT22;49949;43.060;25.624;2023-05-16T04:19:07;20.00;93.10
63802;DHT22;49949;43.060;25.624;2023-05-16T04:21:33;20.40;90.90
63802;DHT22;49949;43.060;25.624;2023-05-16T04:24:00;20.80;89.80
63802;DHT22;49949;43.060;25.624;2023-05-16T04:26:26;21.10;88.10
63802;DHT22;49949;43.060;25.624;2023-05-16T04:28:52;21.40;87.80
63802;DHT22;49949;43.060;25.624;2023-05-16T04:31:18;21.60;85.70
63802;DHT22;49949;43.060;25.624;2023-05-16T04:33:43;21.80;85.70
63802;DHT22;49949;43.060;25.624;2023-05-16T04:36:09;22.00;84.30
63802;DHT22;49949;43.060;25.624;2023-05-16T04:38:35;22.10;84.00
63802;DHT22;49949;43.060;25.624;2023-05-16T04:41:01;22.40;84.60
63802;DHT22;49949;43.060;25.624;2023-05-16T04:43:27;22.60;84.00
63802;DHT22;49949;43.060;25.624;2023-05-16T04:45:52;22.70;83.60
63802;DHT22;49949;43.060;25.624;2023-05-16T04:48:18;22.80;83.90
63802;DHT22;49949;43.060;25.624;2023-05-16T04:50:44;22.80;83.00
63802;DHT22;49949;43.060;25.624;2023-05-16T04:53:10;22.90;82.50
63802;DHT22;49949;43.060;25.624;2023-05-16T04:55:35;23.00;83.00
63802;DHT22;49949;43.060;25.624;2023-05-16T04:58:01;23.00;82.90
63802;DHT22;49949;43.060;25.624;2023-05-16T05:00:27;23.20;82.30
63802;DHT22;49949;43.060;25.624;2023-05-16T05:02:53;23.10;82.30
63802;DHT22;49949;43.060;25.624;2023-05-16T05:05:18;23.20;82.60
63802;DHT22;49949;43.060;25.624;2023-05-16T05:07:44;23.20;82.50
63802;DHT22;49949;43.060;25.624;2023-05-16T05:10:10;23.20;82.10
63802;DHT22;49949;43.060;25.624;2023-05-16T05:12:36;23.20;82.70
63802;DHT22;49949;43.060;25.624;2023-05-16T05:15:03;23.20;82.20
63802;DHT22;49949;43.060;25.624;2023-05-16T05:17:29;23.00;81.80
63802;DHT22;49949;43.060;25.624;2023-05-16T05:19:54;23.00;82.30
63802;DHT22;49949;43.060;25.624;2023-05-16T05:22:20;23.00;83.20
63802;DHT22;49949;43.060;25.624;2023-05-16T05:24:46;23.00;83.20
63802;DHT22;49949;43.060;25.624;2023-05-16T05:27:12;23.00;82.60
63802;DHT22;49949;43.060;25.624;2023-05-16T05:29:38;23.00;82.30
63802;DHT22;49949;43.060;25.624;2023-05-16T05:32:04;23.10;82.70
63802;DHT22;49949;43.060;25.624;2023-05-16T05:34:30;23.30;82.00
63802;DHT22;49949;43.060;25.624;2023-05-16T05:36:56;23.60;80.80
63802;DHT22;49949;43.060;25.624;2023-05-16T05:39:22;23.90;80.20
63802;DHT22;49949;43.060;25.624;2023-05-16T05:41:48;24.40;78.00
63802;DHT22;49949;43.060;25.624;2023-05-16T05:44:14;24.80;77.20
63802;DHT22;49949;43.060;25.624;2023-05-16T05:46:40;25.00;75.80
63802;DHT22;49949;43.060;25.624;2023-05-16T05:49:06;25.20;75.70
63802;DHT22;49949;43.060;25.624;2023-05-16T05:51:32;25.00;76.60
63802;DHT22;49949;43.060;25.624;2023-05-16T05:53:58;25.00;77.80
63802;DHT22;49949;43.060;25.624;2023-05-16T05:56:23;24.80;76.90
63802;DHT22;49949;43.060;25.624;2023-05-16T05:58:50;24.60;77.40
63802;DHT22;49949;43.060;25.624;2023-05-16T06:01:16;24.50;77.10
63802;DHT22;49949;43.060;25.624;2023-05-16T06:03:42;24.30;77.30
63802;DHT22;49949;43.060;25.624;2023-05-16T06:06:08;24.10;77.90
63802;DHT22;49949;43.060;25.624;2023-05-16T06:08:34;24.00;77.50
63802;DHT22;49949;43.060;25.624;2023-05-16T06:11:00;23.90;77.70
63802;DHT22;49949;43.060;25.624;2023-05-16T06:13:26;23.90;78.20
63802;DHT22;49949;43.060;25.624;2023-05-16T06:15:52;23.90;77.30
63802;DHT22;49949;43.060;25.624;2023-05-16T06:18:19;23.80;77.00
63802;DHT22;49949;43.060;25.624;2023-05-16T06:20:45;23.90;77.60
63802;DHT22;49949;43.060;25.624;2023-05-16T06:23:11;23.90;77.20
63802;DHT22;49949;43.060;25.624;2023-05-16T06:25:37;23.90;76.20
63802;DHT22;49949;43.060;25.624;2023-05-16T06:28:03;23.90;75.30
63802;DHT22;49949;43.060;25.624;2023-05-16T06:30:28;23.90;75.30
63802;DHT22;49949;43.060;25.624;2023-05-16T06:32:54;23.90;75.20
63802;DHT22;49949;43.060;25.624;2023-05-16T06:35:20;23.90;73.90
63802;DHT22;49949;43.060;25.624;2023-05-16T06:37:46;23.90;75.30
63802;DHT22;49949;43.060;25.624;2023-05-16T06:40:12;23.80;75.10
63802;DHT22;49949;43.060;25.624;2023-05-16T06:42:38;23.90;75.40
63802;DHT22;49949;43.060;25.624;2023-05-16T06:45:04;23.80;75.10
63802;DHT22;49949;43.060;25.624;2023-05-16T06:47:29;23.80;75.80
63802;DHT22;49949;43.060;25.624;2023-05-16T06:49:55;23.90;76.50
63802;DHT22;49949;43.060;25.624;2023-05-16T06:52:21;23.80;76.20
63802;DHT22;49949;43.060;25.624;2023-05-16T06:54:47;23.80;77.00
63802;DHT22;49949;43.060;25.624;2023-05-16T06:57:12;23.70;77.40
63802;DHT22;49949;43.060;25.624;2023-05-16T06:59:38;23.70;77.70
63802;DHT22;49949;43.060;25.624;2023-05-16T07:02:05;23.70;78.10
63802;DHT22;49949;43.060;25.624;2023-05-16T07:04:30;23.70;78.80
63802;DHT22;49949;43.060;25.624;2023-05-16T07:06:56;23.70;78.50
63802;DHT22;49949;43.060;25.624;2023-05-16T07:09:22;23.70;78.80
63802;DHT22;49949;43.060;25.624;2023-05-16T07:11:48;23.70;78.80
63802;DHT22;49949;43.060;25.624;2023-05-16T07:14:14;23.70;79.50
63802;DHT22;49949;43.060;25.624;2023-05-16T07:16:40;23.60;79.20
63802;DHT22;49949;43.060;25.624;2023-05-16T07:19:05;23.60;79.60
63802;DHT22;49949;43.060;25.624;2023-05-16T07:21:31;23.60;80.20
63802;DHT22;49949;43.060;25.624;2023-05-16T07:23:57;23.60;79.90
63802;DHT22;49949;43.060;25.624;2023-05-16T07:26:22;23.50;80.50
63802;DHT22;49949;43.060;25.624;2023-05-16T07:28:51;23.50;80.50
63802;DHT22;49949;43.060;25.624;2023-05-16T07:31:17;23.60;81.30
63802;DHT22;49949;43.060;25.624;2023-05-16T07:33:43;23.70;80.40
63802;DHT22;49949;43.060;25.624;2023-05-16T07:36:12;23.70;80.00
63802;DHT22;49949;43.060;25.624;2023-05-16T07:38:38;23.80;79.30
63802;DHT22;49949;43.060;25.624;2023-05-16T07:41:04;23.80;78.10
63802;DHT22;49949;43.060;25.624;2023-05-16T07:43:30;23.70;79.10
63802;DHT22;49949;43.060;25.624;2023-05-16T07:45:56;23.50;79.70
63802;DHT22;49949;43.060;25.624;2023-05-16T07:48:22;23.40;80.00
63802;DHT22;49949;43.060;25.624;2023-05-16T07:50:48;23.40;80.60
63802;DHT22;49949;43.060;25.624;2023-05-16T07:53:13;23.30;82.00
63802;DHT22;49949;43.060;25.624;2023-05-16T07:55:39;23.30;81.20
63802;DHT22;49949;43.060;25.624;2023-05-16T07:58:05;23.20;81.40
63802;DHT22;49949;43.060;25.624;2023-05-16T08:00:31;23.20;82.50
63802;DHT22;49949;43.060;25.624;2023-05-16T08:02:57;23.30;82.90
63802;DHT22;49949;43.060;25.624;2023-05-16T08:05:22;23.40;82.80
63802;DHT22;49949;43.060;25.624;2023-05-16T08:07:48;23.40;81.80
63802;DHT22;49949;43.060;25.624;2023-05-16T08:10:14;23.40;80.90
63802;DHT22;49949;43.060;25.624;2023-05-16T08:12:40;23.40;81.20
63802;DHT22;49949;43.060;25.624;2023-05-16T08:15:06;23.40;81.80
63802;DHT22;49949;43.060;25.624;2023-05-16T08:17:32;23.40;82.40
63802;DHT22;49949;43.060;25.624;2023-05-16T08:19:58;23.30;82.50
63802;DHT22;49949;43.060;25.624;2023-05-16T08:22:26;23.50;83.70
63802;DHT22;49949;43.060;25.624;2023-05-16T08:24:52;23.50;84.10
63802;DHT22;49949;43.060;25.624;2023-05-16T08:27:19;23.50;85.30
63802;DHT22;49949;43.060;25.624;2023-05-16T08:29:45;23.50;85.30
63802;DHT22;49949;43.060;25.624;2023-05-16T08:32:10;23.40;84.60
63802;DHT22;49949;43.060;25.624;2023-05-16T08:34:36;23.50;86.40
63802;DHT22;49949;43.060;25.624;2023-05-16T08:37:02;23.50;86.00
63802;DHT22;49949;43.060;25.624;2023-05-16T08:39:28;23.50;87.80
63802;DHT22;49949;43.060;25.624;2023-05-16T08:41:55;23.40;85.70
63802;DHT22;49949;43.060;25.624;2023-05-16T08:44:21;23.30;88.30
63802;DHT22;49949;43.060;25.624;2023-05-16T08:46:51;23.20;87.80
63802;DHT22;49949;43.060;25.624;2023-05-16T08:49:18;23.20;89.20
63802;DHT22;49949;43.060;25.624;2023-05-16T08:51:48;23.30;89.00
63802;DHT22;49949;43.060;25.624;2023-05-16T08:54:15;23.40;90.20
63802;DHT22;49949;43.060;25.624;2023-05-16T08:56:43;23.50;93.00
63802;DHT22;49949;43.060;25.624;2023-05-16T08:59:10;23.60;93.70
63802;DHT22;49949;43.060;25.624;2023-05-16T09:01:37;23.70;93.20
63802;DHT22;49949;43.060;25.624;2023-05-16T09:04:05;23.80;91.80
63802;DHT22;49949;43.060;25.624;2023-05-16T09:06:31;24.00;91.50
63802;DHT22;49949;43.060;25.624;2023-05-16T09:08:57;24.10;85.10
63802;DHT22;49949;43.060;25.624;2023-05-16T09:11:22;24.10;86.20
63802;DHT22;49949;43.060;25.624;2023-05-16T09:13:48;24.00;87.60
63802;DHT22;49949;43.060;25.624;2023-05-16T09:16:19;24.10;89.70
63802;DHT22;49949;43.060;25.624;2023-05-16T09:18:55;24.20;92.50
63802;DHT22;49949;43.060;25.624;2023-05-16T09:21:32;24.20;95.10
63802;DHT22;49949;43.060;25.624;2023-05-16T09:24:05;24.10;97.40
63802;DHT22;49949;43.060;25.624;2023-05-16T09:26:33;24.10;97.30
63802;DHT22;49949;43.060;25.624;2023-05-16T09:28:59;24.00;97.00
63802;DHT22;49949;43.060;25.624;2023-05-16T09:31:27;23.90;96.50
63802;DHT22;49949;43.060;25.624;2023-05-16T09:34:02;23.90;97.80
63802;DHT22;49949;43.060;25.624;2023-05-16T09:36:31;23.80;97.90
63802;DHT22;49949;43.060;25.624;2023-05-16T09:38:56;23.70;98.80
63802;DHT22;49949;43.060;25.624;2023-05-16T09:41:22;23.60;98.80
63802;DHT22;49949;43.060;25.624;2023-05-16T09:43:48;23.50;98.10
63802;DHT22;49949;43.060;25.624;2023-05-16T09:46:14;23.40;99.20
63802;DHT22;49949;43.060;25.624;2023-05-16T09:48:50;23.40;99.70
63802;DHT22;49949;43.060;25.624;2023-05-16T09:51:21;23.20;99.50
63802;DHT22;49949;43.060;25.624;2023-05-16T09:53:47;23.20;99.30
63802;DHT22;49949;43.060;25.624;2023-05-16T09:56:14;23.30;99.50
63802;DHT22;49949;43.060;25.624;2023-05-16T09:58:44;23.30;98.90
63802;DHT22;49949;43.060;25.624;2023-05-16T10:01:10;23.30;98.40
63802;DHT22;49949;43.060;25.624;2023-05-16T10:03:38;23.30;98.90
63802;DHT22;49949;43.060;25.624;2023-05-16T10:06:04;23.40;99.40
63802;DHT22;49949;43.060;25.624;2023-05-16T10:08:32;23.40;99.90
63802;DHT22;49949;43.060;25.624;2023-05-16T10:11:03;23.40;99.90
63802;DHT22;49949;43.060;25.624;2023-05-16T10:13:30;23.40;99.70
63802;DHT22;49949;43.060;25.624;2023-05-16T10:15:58;23.30;96.20
63802;DHT22;49949;43.060;25.624;2023-05-16T10:18:29;23.30;92.70
63802;DHT22;49949;43.060;25.624;2023-05-16T10:20:56;23.20;99.90
63802;DHT22;49949;43.060;25.624;2023-05-16T10:23:24;23.20;99.90
63802;DHT22;49949;43.060;25.624;2023-05-16T10:25:51;23.10;99.90
63802;DHT22;49949;43.060;25.624;2023-05-16T10:28:17;23.30;99.90
63802;DHT22;49949;43.060;25.624;2023-05-16T10:30:44;23.30;99.30
63802;DHT22;49949;43.060;25.624;2023-05-16T10:33:15;23.30;99.90
63802;DHT22;49949;43.060;25.624;2023-05-16T10:35:41;23.40;99.90
63802;DHT22;49949;43.060;25.624;2023-05-16T10:38:08;23.40;99.90
63802;DHT22;49949;43.060;25.624;2023-05-16T10:40:37;23.40;99.90
63802;DHT22;49949;43.060;25.624;2023-05-16T10:43:04;23.40;99.90
63802;DHT22;49949;43.060;25.624;2023-05-16T10:45:30;23.50;99.30
63802;DHT22;49949;43.060;25.624;2023-05-16T10:50:36;23.70;99.90
63802;DHT22;49949;43.060;25.624;2023-05-16T10:53:19;23.80;99.90
63802;DHT22;49949;43.060;25.624;2023-05-16T11:11:45;24.20;94.10
63802;DHT22;49949;43.060;25.624;2023-05-16T11:17:12;24.50;94.70
63802;DHT22;49949;43.060;25.624;2023-05-16T11:19:43;24.80;93.80
63802;DHT22;49949;43.060;25.624;2023-05-16T11:25:04;24.90;91.50
63802;DHT22;49949;43.060;25.624;2023-05-16T11:27:46;25.20;91.10
63802;DHT22;49949;43.060;25.624;2023-05-16T11:30:14;25.50;88.30
63802;DHT22;49949;43.060;25.624;2023-05-16T11:32:43;25.60;89.50
63802;DHT22;49949;43.060;25.624;2023-05-16T11:35:11;25.70;89.90
63802;DHT22;49949;43.060;25.624;2023-05-16T11:37:37;25.70;88.60
63802;DHT22;49949;43.060;25.624;2023-05-16T11:40:10;25.80;86.70
63802;DHT22;49949;43.060;25.624;2023-05-16T11:42:41;25.80;82.40
63802;DHT22;49949;43.060;25.624;2023-05-16T11:45:18;25.70;82.50
63802;DHT22;49949;43.060;25.624;2023-05-16T11:47:45;25.70;81.50
63802;DHT22;49949;43.060;25.624;2023-05-16T11:50:13;25.70;81.60
63802;DHT22;49949;43.060;25.624;2023-05-16T11:52:43;25.70;82.20
63802;DHT22;49949;43.060;25.624;2023-05-16T11:55:10;25.80;82.30
63802;DHT22;49949;43.060;25.624;2023-05-16T11:57:40;26.00;83.00
63802;DHT22;49949;43.060;25.624;2023-05-16T12:00:17;26.00;83.10
63802;DHT22;49949;43.060;25.624;2023-05-16T12:02:44;25.90;83.00
63802;DHT22;49949;43.060;25.624;2023-05-16T12:05:12;25.90;83.70
63802;DHT22;49949;43.060;25.624;2023-05-16T12:07:38;25.90;84.90
63802;DHT22;49949;43.060;25.624;2023-05-16T12:10:08;25.80;83.90
63802;DHT22;49949;43.060;25.624;2023-05-16T12:12:35;25.80;85.00
63802;DHT22;49949;43.060;25.624;2023-05-16T12:15:02;25.70;85.50
63802;DHT22;49949;43.060;25.624;2023-05-16T12:17:28;25.70;85.70
63802;DHT22;49949;43.060;25.624;2023-05-16T12:19:55;25.70;86.40
63802;DHT22;49949;43.060;25.624;2023-05-16T12:22:21;25.70;85.60
63802;DHT22;49949;43.060;25.624;2023-05-16T12:24:47;25.50;87.20
63802;DHT22;49949;43.060;25.624;2023-05-16T12:27:24;25.50;87.10
63802;DHT22;49949;43.060;25.624;2023-05-16T12:29:49;25.60;87.50
63802;DHT22;49949;43.060;25.624;2023-05-16T12:32:19;25.60;87.70
63802;DHT22;49949;43.060;25.624;2023-05-16T12:34:49;25.60;88.60
63802;DHT22;49949;43.060;25.624;2023-05-16T12:37:16;25.70;89.10
63802;DHT22;49949;43.060;25.624;2023-05-16T12:39:42;25.70;89.30
63802;DHT22;49949;43.060;25.624;2023-05-16T12:42:08;25.70;89.80
63802;DHT22;49949;43.060;25.624;2023-05-16T12:44:36;25.40;90.40
63802;DHT22;49949;43.060;25.624;2023-05-16T12:47:01;25.20;89.90
63802;DHT22;49949;43.060;25.624;2023-05-16T12:49:27;25.10;89.50
63802;DHT22;49949;43.060;25.624;2023-05-16T12:51:54;25.00;89.80
63802;DHT22;49949;43.060;25.624;2023-05-16T12:54:20;24.90;90.50
63802;DHT22;49949;43.060;25.624;2023-05-16T12:56:50;24.90;90.90
63802;DHT22;49949;43.060;25.624;2023-05-16T12:59:15;25.00;91.10
63802;DHT22;49949;43.060;25.624;2023-05-16T13:01:41;25.00;90.60
63802;DHT22;49949;43.060;25.624;2023-05-16T13:04:08;25.10;92.00
63802;DHT22;49949;43.060;25.624;2023-05-16T13:06:38;25.10;89.10
63802;DHT22;49949;43.060;25.624;2023-05-16T13:09:04;25.20;91.20
63802;DHT22;49949;43.060;25.624;2023-05-16T13:11:30;25.20;89.60
63802;DHT22;49949;43.060;25.624;2023-05-16T13:13:56;25.30;90.90
63802;DHT22;49949;43.060;25.624;2023-05-16T13:16:21;25.30;92.70
63802;DHT22;49949;43.060;25.624;2023-05-16T13:18:47;25.30;92.50
63802;DHT22;49949;43.060;25.624;2023-05-16T13:21:13;25.30;92.00
63802;DHT22;49949;43.060;25.624;2023-05-16T13:23:38;25.30;92.30
63802;DHT22;49949;43.060;25.624;2023-05-16T13:26:04;25.40;92.00
63802;DHT22;49949;43.060;25.624;2023-05-16T13:28:29;25.40;91.80
63802;DHT22;49949;43.060;25.624;2023-05-16T13:30:56;25.50;91.80
63802;DHT22;49949;43.060;25.624;2023-05-16T13:33:22;25.50;92.10
63802;DHT22;49949;43.060;25.624;2023-05-16T13:35:49;25.50;92.70
63802;DHT22;49949;43.060;25.624;2023-05-16T13:38:15;25.40;92.70
63802;DHT22;49949;43.060;25.624;2023-05-16T13:40:41;25.50;91.60
63802;DHT22;49949;43.060;25.624;2023-05-16T13:43:07;25.50;92.20
63802;DHT22;49949;43.060;25.624;2023-05-16T13:45:33;25.50;95.00
63802;DHT22;49949;43.060;25.624;2023-05-16T13:47:59;25.50;93.40
63802;DHT22;49949;43.060;25.624;2023-05-16T13:50:25;25.60;94.80
63802;DHT22;49949;43.060;25.624;2023-05-16T13:52:51;25.50;96.20
63802;DHT22;49949;43.060;25.624;2023-05-16T13:55:17;25.50;97.30
63802;DHT22;49949;43.060;25.624;2023-05-16T13:57:43;25.50;95.80
63802;DHT22;49949;43.060;25.624;2023-05-16T14:00:09;25.40;97.90
63802;DHT22;49949;43.060;25.624;2023-05-16T14:02:39;25.30;98.50
63802;DHT22;49949;43.060;25.624;2023-05-16T14:05:05;25.30;97.20
63802;DHT22;49949;43.060;25.624;2023-05-16T14:07:31;25.20;96.80
63802;DHT22;49949;43.060;25.624;2023-05-16T14:09:57;25.10;95.10
63802;DHT22;49949;43.060;25.624;2023-05-16T14:12:23;25.10;97.00
63802;DHT22;49949;43.060;25.624;2023-05-16T14:14:48;25.10;97.60
63802;DHT22;49949;43.060;25.624;2023-05-16T14:17:14;25.10;98.20
63802;DHT22;49949;43.060;25.624;2023-05-16T14:19:40;25.10;96.80
63802;DHT22;49949;43.060;25.624;2023-05-16T14:22:05;25.10;96.80
63802;DHT22;49949;43.060;25.624;2023-05-16T14:24:32;24.80;98.10
63802;DHT22;49949;43.060;25.624;2023-05-16T14:26:58;24.80;97.40
63802;DHT22;49949;43.060;25.624;2023-05-16T14:29:24;24.70;98.60
63802;DHT22;49949;43.060;25.624;2023-05-16T14:31:50;24.70;96.50
63802;DHT22;49949;43.060;25.624;2023-05-16T14:34:16;24.70;98.00
63802;DHT22;49949;43.060;25.624;2023-05-16T14:36:42;24.80;99.00
63802;DHT22;49949;43.060;25.624;2023-05-16T14:39:08;24.80;98.50
63802;DHT22;49949;43.060;25.624;2023-05-16T14:41:34;24.80;98.10
63802;DHT22;49949;43.060;25.624;2023-05-16T14:44:00;24.80;98.70
63802;DHT22;49949;43.060;25.624;2023-05-16T14:46:25;24.80;96.20
63802;DHT22;49949;43.060;25.624;2023-05-16T14:48:51;24.80;97.60
63802;DHT22;49949;43.060;25.624;2023-05-16T14:51:17;24.70;97.00
63802;DHT22;49949;43.060;25.624;2023-05-16T14:53:42;24.70;99.50
63802;DHT22;49949;43.060;25.624;2023-05-16T14:56:08;24.60;98.20
63802;DHT22;49949;43.060;25.624;2023-05-16T14:58:34;24.40;99.90
63802;DHT22;49949;43.060;25.624;2023-05-16T15:01:00;24.40;99.30
63802;DHT22;49949;43.060;25.624;2023-05-16T15:03:25;24.20;99.90
63802;DHT22;49949;43.060;25.624;2023-05-16T15:05:51;24.20;99.70
63802;DHT22;49949;43.060;25.624;2023-05-16T15:08:17;24.10;99.70
63802;DHT22;49949;43.060;25.624;2023-05-16T15:10:42;24.00;99.80
63802;DHT22;49949;43.060;25.624;2023-05-16T15:13:08;23.90;98.80
63802;DHT22;49949;43.060;25.624;2023-05-16T15:15:34;23.80;99.30
63802;DHT22;49949;43.060;25.624;2023-05-16T15:18:03;23.80;98.60
63802;DHT22;49949;43.060;25.624;2023-05-16T15:20:28;23.70;98.80
63802;DHT22;49949;43.060;25.624;2023-05-16T15:22:54;23.70;97.30
63802;DHT22;49949;43.060;25.624;2023-05-16T15:25:20;23.60;98.30
63802;DHT22;49949;43.060;25.624;2023-05-16T15:27:46;23.60;97.60
63802;DHT22;49949;43.060;25.624;2023-05-16T15:30:11;23.50;94.60
63802;DHT22;49949;43.060;25.624;2023-05-16T15:32:37;23.50;94.20
63802;DHT22;49949;43.060;25.624;2023-05-16T15:35:03;23.50;93.70
63802;DHT22;49949;43.060;25.624;2023-05-16T15:37:29;23.50;94.20
63802;DHT22;49949;43.060;25.624;2023-05-16T15:39:55;23.50;97.30
63802;DHT22;49949;43.060;25.624;2023-05-16T15:42:21;23.30;98.30
63802;DHT22;49949;43.060;25.624;2023-05-16T15:44:46;23.20;97.50
63802;DHT22;49949;43.060;25.624;2023-05-16T15:47:12;23.20;97.90
63802;DHT22;49949;43.060;25.624;2023-05-16T15:49:38;23.00;98.10
63802;DHT22;49949;43.060;25.624;2023-05-16T15:52:04;23.00;97.80